PWSweather.com
Personal Weather Stations
Station Observations
REBOX73
Petalia At Mount Pantokrator, CorfuGR 49081

Petalia At Mount PantokratorCorfuGR 49081

Lat: 39.747915, Lon: 19.841466

Elevation: 2132

Station Type: ws1080

http://pantokratoras-kerkyra.meteoclub.gr/

Latest ConditionsUpdated 2:00:00 PM GMT+01:01 Saturday, Jan 31, 2015
Currently Today's Max Today's Min Today's Average
Temperature 45.5°F7.5°C 46.9°F8.3°C 43.3°F6.3°C 45.0°F7.2°C
Dew Point 45.2°F7.3°C 46.7°F8.2°C 41.9°F5.5°C 44.2°F6.8°C
Winds 1.3 mph S2.1 kmh S 9.4 mph NW15.1 kmh NW - 4.6 mph 7.4 kmh
Wind Gusts 2.2 mph3.5 kmh 19.0 mph30.6 kmh - -
Humidity 99% 100% 92% 97%
Pressure 29.27 in991.2 mb 29.38 in994.9 mb 29.27 in991.2 mb -
Precipitation - 0.64 in16.3 mm - -
Hour Temp Dew Point Humidity Winds Wind Gusts Pressure Precip Precip Rate Daily Precip Total
02:00 PM 45.5°F7.5°C 45.2°F7.3°C 99% 1.3 mph S2.1 kmh S 2.2 mph3.5 kmh 29.27 in991.2 mb 0.04 in1.0 mm 0.00 in/hr0.0 mm/hr 0.64 in16.3 mm
01:45 PM 45.3°F7.4°C 45.1°F7.3°C 99% 2.7 mph SSW4.3 kmh SSW 4.5 mph7.2 kmh 29.27 in991.2 mb 0.06 in1.5 mm 0.00 in/hr0.0 mm/hr 0.63 in16.0 mm
01:30 PM 45.0°F7.2°C 44.7°F7.1°C 99% 2.9 mph SW4.7 kmh SW 5.4 mph8.7 kmh 29.28 in991.5 mb 0.07 in1.8 mm 0.00 in/hr0.0 mm/hr 0.61 in15.5 mm
01:00 PM 45.0°F7.2°C 44.7°F7.1°C 99% 3.4 mph SW5.5 kmh SW 5.4 mph8.7 kmh 29.30 in992.2 mb 0.11 in2.8 mm 0.00 in/hr0.0 mm/hr 0.58 in14.7 mm
12:45 PM 44.8°F7.1°C 44.5°F6.9°C 99% 3.3 mph SSE5.3 kmh SSE 8.3 mph13.4 kmh 29.30 in992.2 mb 0.13 in3.3 mm 0.04 in/hr1.0 mm/hr 0.57 in14.5 mm
12:30 PM 44.6°F7.0°C 44.3°F6.8°C 99% 3.2 mph S5.1 kmh S 6.0 mph9.7 kmh 29.30 in992.2 mb 0.12 in3.0 mm 0.04 in/hr1.0 mm/hr 0.53 in13.5 mm
12:15 PM 44.2°F6.8°C 44.0°F6.7°C 99% 3.5 mph SW5.6 kmh SW 5.4 mph8.7 kmh 29.31 in992.6 mb 0.11 in2.8 mm 0.00 in/hr0.0 mm/hr 0.48 in12.2 mm
12:00 PM 43.7°F6.5°C 43.4°F6.3°C 99% 4.0 mph SSE6.4 kmh SSE 6.9 mph11.1 kmh 29.31 in992.6 mb 0.14 in3.6 mm 0.00 in/hr0.0 mm/hr 0.47 in11.9 mm
11:45 AM 43.5°F6.4°C 43.3°F6.3°C 99% 4.8 mph S7.7 kmh S 6.9 mph11.1 kmh 29.32 in992.9 mb 0.18 in4.6 mm 0.00 in/hr0.0 mm/hr 0.44 in11.2 mm
11:30 AM 43.7°F6.5°C 43.4°F6.3°C 99% 4.1 mph SSW6.6 kmh SSW 6.0 mph9.7 kmh 29.33 in993.2 mb 0.20 in5.1 mm 0.00 in/hr0.0 mm/hr 0.41 in10.4 mm
11:15 AM 43.7°F6.5°C 43.4°F6.3°C 99% 4.8 mph S7.7 kmh S 9.2 mph14.8 kmh 29.34 in993.6 mb 0.20 in5.1 mm 0.12 in/hr3.0 mm/hr 0.37 in9.4 mm
11:00 AM 43.9°F6.6°C 43.6°F6.4°C 99% 5.0 mph SE8.0 kmh SE 10.7 mph17.2 kmh 29.34 in993.6 mb 0.17 in4.3 mm 0.04 in/hr1.0 mm/hr 0.31 in7.9 mm
10:45 AM 44.2°F6.8°C 44.0°F6.7°C 99% 6.6 mph S10.6 kmh S 9.2 mph14.8 kmh 29.35 in993.9 mb 0.14 in3.6 mm 0.08 in/hr2.0 mm/hr 0.25 in6.4 mm
10:30 AM 44.4°F6.9°C 44.2°F6.8°C 99% 7.3 mph S11.7 kmh S 9.8 mph15.8 kmh 29.34 in993.6 mb 0.12 in3.0 mm 0.04 in/hr1.0 mm/hr 0.20 in5.1 mm
10:15 AM 44.4°F6.9°C 44.2°F6.8°C 99% 7.5 mph ESE12.1 kmh ESE 9.8 mph15.8 kmh 29.35 in993.9 mb 0.11 in2.8 mm 0.20 in/hr5.1 mm/hr 0.17 in4.3 mm
10:00 AM 44.2°F6.8°C 44.2°F6.8°C 100% 4.8 mph S7.7 kmh S 8.3 mph13.4 kmh 29.35 in993.9 mb 0.06 in1.5 mm 0.01 in/hr0.3 mm/hr 0.12 in3.0 mm
09:45 AM 44.4°F6.9°C 43.4°F6.3°C 96% 4.7 mph S7.6 kmh S 7.6 mph12.2 kmh 29.35 in993.9 mb 0.05 in1.3 mm 0.02 in/hr0.5 mm/hr 0.09 in2.3 mm
09:15 AM 44.8°F7.1°C 43.2°F6.2°C 94% 2.5 mph SSW4.0 kmh SSW 3.8 mph6.1 kmh 29.35 in993.9 mb 0.04 in1.0 mm 0.00 in/hr0.0 mm/hr 0.06 in1.5 mm
09:00 AM 44.8°F7.1°C 43.2°F6.2°C 94% 4.8 mph SE7.7 kmh SE 9.8 mph15.8 kmh 29.35 in993.9 mb 0.04 in1.0 mm 0.04 in/hr1.0 mm/hr 0.06 in1.5 mm
08:45 AM 45.0°F7.2°C 43.1°F6.2°C 93% 2.6 mph N4.2 kmh N 4.5 mph7.2 kmh 29.34 in993.6 mb 0.01 in0.3 mm 0.04 in/hr1.0 mm/hr 0.04 in1.0 mm
08:30 AM 45.1°F7.3°C 43.2°F6.2°C 93% 3.1 mph S5.0 kmh S 4.5 mph7.2 kmh 29.34 in993.6 mb 0.00 in0.0 mm 0.00 in/hr0.0 mm/hr 0.02 in0.5 mm
08:15 AM 45.1°F7.3°C 43.5°F6.4°C 94% 3.3 mph SE5.3 kmh SE 6.9 mph11.1 kmh 29.36 in994.2 mb 0.00 in0.0 mm 0.00 in/hr0.0 mm/hr 0.02 in0.5 mm
08:00 AM 45.3°F7.4°C 43.1°F6.2°C 92% 3.6 mph W5.8 kmh W 6.0 mph9.7 kmh 29.36 in994.2 mb 0.00 in0.0 mm 0.00 in/hr0.0 mm/hr 0.02 in0.5 mm
07:45 AM 45.5°F7.5°C 43.6°F6.4°C 93% 2.8 mph SSE4.5 kmh SSE 4.5 mph7.2 kmh 29.36 in994.2 mb 0.00 in0.0 mm 0.00 in/hr0.0 mm/hr 0.02 in0.5 mm
07:30 AM 45.1°F7.3°C 43.8°F6.6°C 95% 3.1 mph S5.0 kmh S 6.0 mph9.7 kmh 29.38 in994.9 mb 0.00 in0.0 mm 0.00 in/hr0.0 mm/hr 0.02 in0.5 mm
07:15 AM 44.8°F7.1°C 44.0°F6.7°C 97% 2.3 mph SE3.7 kmh SE 3.8 mph6.1 kmh 29.38 in994.9 mb 0.00 in0.0 mm 0.00 in/hr0.0 mm/hr 0.02 in0.5 mm
07:00 AM 44.2°F6.8°C 43.4°F6.3°C 97% 2.1 mph SE3.4 kmh SE 3.8 mph6.1 kmh 29.38 in994.9 mb 0.00 in0.0 mm 0.00 in/hr0.0 mm/hr 0.02 in0.5 mm
06:45 AM 43.7°F6.5°C 42.6°F5.9°C 96% 1.3 mph SE2.1 kmh SE 2.2 mph3.5 kmh 29.35 in993.9 mb 0.00 in0.0 mm 0.00 in/hr0.0 mm/hr 0.02 in0.5 mm
06:30 AM 43.3°F6.3°C 42.3°F5.7°C 96% 1.5 mph ESE2.4 kmh ESE 2.2 mph3.5 kmh 29.34 in993.6 mb 0.00 in0.0 mm 0.00 in/hr0.0 mm/hr 0.02 in0.5 mm
06:15 AM 43.5°F6.4°C 41.9°F5.5°C 94% 1.9 mph SSE3.1 kmh SSE 3.1 mph5.0 kmh 29.33 in993.2 mb 0.00 in0.0 mm 0.00 in/hr0.0 mm/hr 0.02 in0.5 mm
06:00 AM 43.9°F6.6°C 42.3°F5.7°C 94% 2.5 mph SE4.0 kmh SE 3.1 mph5.0 kmh 29.34 in993.6 mb 0.00 in0.0 mm 0.00 in/hr0.0 mm/hr 0.02 in0.5 mm
05:45 AM 44.2°F6.8°C 42.3°F5.7°C 93% 1.1 mph S1.8 kmh S 3.8 mph6.1 kmh 29.36 in994.2 mb 0.00 in0.0 mm 0.00 in/hr0.0 mm/hr 0.02 in0.5 mm
05:30 AM 44.6°F7.0°C 42.4°F5.8°C 92% 1.4 mph S2.3 kmh S 2.2 mph3.5 kmh 29.37 in994.6 mb 0.00 in0.0 mm 0.00 in/hr0.0 mm/hr 0.02 in0.5 mm
05:15 AM 44.8°F7.1°C 42.6°F5.9°C 92% 2.5 mph NNW4.0 kmh NNW 6.0 mph9.7 kmh 29.36 in994.2 mb 0.00 in0.0 mm 0.00 in/hr0.0 mm/hr 0.02 in0.5 mm
05:00 AM 45.0°F7.2°C 42.8°F6.0°C 92% 3.9 mph NW6.3 kmh NW 6.9 mph11.1 kmh 29.34 in993.6 mb 0.00 in0.0 mm 0.00 in/hr0.0 mm/hr 0.02 in0.5 mm
04:45 AM 45.0°F7.2°C 43.1°F6.2°C 93% 5.0 mph W8.0 kmh W 8.3 mph13.4 kmh 29.34 in993.6 mb 0.00 in0.0 mm 0.00 in/hr0.0 mm/hr 0.02 in0.5 mm
04:30 AM 44.6°F7.0°C 43.0°F6.1°C 94% 4.9 mph NNW7.9 kmh NNW 7.6 mph12.2 kmh 29.35 in993.9 mb 0.00 in0.0 mm 0.00 in/hr0.0 mm/hr 0.02 in0.5 mm
04:15 AM 44.6°F7.0°C 43.3°F6.3°C 95% 4.7 mph NNW7.6 kmh NNW 6.9 mph11.1 kmh 29.33 in993.2 mb 0.00 in0.0 mm 0.00 in/hr0.0 mm/hr 0.02 in0.5 mm
04:00 AM 44.6°F7.0°C 43.8°F6.6°C 97% 6.0 mph NW9.7 kmh NW 10.7 mph17.2 kmh 29.32 in992.9 mb 0.00 in0.0 mm 0.00 in/hr0.0 mm/hr 0.02 in0.5 mm
03:45 AM 44.4°F6.9°C 44.2°F6.8°C 99% 5.2 mph NNW8.4 kmh NNW 7.6 mph12.2 kmh 29.32 in992.9 mb 0.00 in0.0 mm 0.00 in/hr0.0 mm/hr 0.02 in0.5 mm
03:30 AM 44.6°F7.0°C 44.3°F6.8°C 99% 5.3 mph N8.5 kmh N 7.6 mph12.2 kmh 29.34 in993.6 mb 0.00 in0.0 mm 0.00 in/hr0.0 mm/hr 0.02 in0.5 mm
03:15 AM 45.1°F7.3°C 44.9°F7.2°C 99% 7.6 mph NW12.2 kmh NW 9.8 mph15.8 kmh 29.34 in993.6 mb 0.00 in0.0 mm 0.00 in/hr0.0 mm/hr 0.02 in0.5 mm
03:00 AM 45.5°F7.5°C 45.2°F7.3°C 99% 5.8 mph NNW9.3 kmh NNW 9.8 mph15.8 kmh 29.34 in993.6 mb 0.00 in0.0 mm 0.00 in/hr0.0 mm/hr 0.02 in0.5 mm
02:45 AM 46.0°F7.8°C 45.8°F7.7°C 99% 6.8 mph WNW10.9 kmh WNW 9.8 mph15.8 kmh 29.35 in993.9 mb 0.00 in0.0 mm 0.00 in/hr0.0 mm/hr 0.02 in0.5 mm
02:30 AM 46.2°F7.9°C 46.0°F7.8°C 99% 6.1 mph W9.8 kmh W 9.8 mph15.8 kmh 29.34 in993.6 mb 0.00 in0.0 mm 0.00 in/hr0.0 mm/hr 0.02 in0.5 mm
02:15 AM 46.4°F8.0°C 46.1°F7.8°C 99% 7.8 mph NW12.6 kmh NW 11.4 mph18.3 kmh 29.34 in993.6 mb 0.00 in0.0 mm 0.00 in/hr0.0 mm/hr 0.02 in0.5 mm
02:00 AM 46.4°F8.0°C 46.1°F7.8°C 99% 6.4 mph NW10.3 kmh NW 14.5 mph23.3 kmh 29.34 in993.6 mb 0.00 in0.0 mm 0.00 in/hr0.0 mm/hr 0.02 in0.5 mm
01:45 AM 46.2°F7.9°C 46.0°F7.8°C 99% 7.1 mph NNW11.4 kmh NNW 13.0 mph20.9 kmh 29.33 in993.2 mb 0.00 in0.0 mm 0.00 in/hr0.0 mm/hr 0.02 in0.5 mm
01:30 AM 46.2°F7.9°C 46.0°F7.8°C 99% 6.7 mph NW10.8 kmh NW 11.4 mph18.3 kmh 29.32 in992.9 mb 0.00 in0.0 mm 0.00 in/hr0.0 mm/hr 0.02 in0.5 mm
01:15 AM 46.2°F7.9°C 46.0°F7.8°C 99% 7.5 mph NNW12.1 kmh NNW 13.6 mph21.9 kmh 29.31 in992.6 mb 0.00 in0.0 mm 0.00 in/hr0.0 mm/hr 0.02 in0.5 mm
01:00 AM 46.6°F8.1°C 46.3°F7.9°C 99% 7.0 mph NW11.3 kmh NW 10.7 mph17.2 kmh 29.32 in992.9 mb 0.00 in0.0 mm 0.00 in/hr0.0 mm/hr 0.02 in0.5 mm
12:45 AM 46.8°F8.2°C 46.5°F8.1°C 99% 7.4 mph NW11.9 kmh NW 10.7 mph17.2 kmh 29.32 in992.9 mb 0.00 in0.0 mm 0.00 in/hr0.0 mm/hr 0.02 in0.5 mm
12:30 AM 46.9°F8.3°C 46.7°F8.2°C 99% 9.4 mph NW15.1 kmh NW 19.0 mph30.6 kmh 29.31 in992.6 mb 0.00 in0.0 mm 0.00 in/hr0.0 mm/hr 0.02 in0.5 mm
12:15 AM 46.8°F8.2°C 46.5°F8.1°C 99% 8.8 mph SW14.2 kmh SW 14.5 mph23.3 kmh 29.33 in993.2 mb 0.00 in0.0 mm 0.00 in/hr0.0 mm/hr 0.02 in0.5 mm
12:00 AM 46.8°F8.2°C 46.5°F8.1°C 99% 6.9 mph SSW11.1 kmh SSW 11.4 mph18.3 kmh 29.32 in992.9 mb 0.02 in0.5 mm 0.00 in/hr0.0 mm/hr 0.02 in0.5 mm